Nonstind — LK7508 — position and weather

sailwx.info

Track history (hours):
 
Tides and Currents Weather Stations Pressure Air Temp Water Temp Dewpoint Dewpoint Depression Visibility Wind Speed Wind Dir Waves Ship Positions

Nonstind

Last reported at 2017-Jul-22 06:30 UTC. Time now 2017-Jul-22 06:45 UTC.
Position N 70°60' E 029°04'.

Length 12 m.

Type: Fishing. MMSI: 257150140.

Date/timePositionNaut miles runAvg speedWind from/ knotsBaromVisibWave heightAir tempDewpointWater temp
2017-Jul-22 06:30N 70°60' E 029°04'1 1.8
2017-Jul-22 06:00N 70°59' E 029°06'1 1.8
2017-Jul-22 05:30N 70°58' E 029°08'1 1.4
2017-Jul-22 04:59N 70°58' E 029°09'1 1.1
2017-Jul-22 04:30N 70°58' E 029°09'3 6.0
2017-Jul-22 04:00N 71°01' E 029°03'1 2.3
2017-Jul-22 03:30N 71°01' E 028°60'3 5.3
2017-Jul-22 03:00N 70°60' E 029°06'1 2.0
2017-Jul-22 02:30N 70°59' E 029°09'1 1.9
2017-Jul-22 02:00N 70°58' E 029°10'3 6.7
2017-Jul-22 01:30N 70°55' E 029°10'3 6.9
2017-Jul-22 01:00N 70°52' E 029°07'0 0.8
2017-Jul-22 00:29N 70°51' E 029°06'0 0.0
2017-Jul-21 23:59N 70°51' E 029°06'0 0.0
2017-Jul-21 23:29N 70°51' E 029°06'0 0.0
2017-Jul-21 22:59N 70°51' E 029°06'0 0.0
2017-Jul-21 22:29N 70°51' E 029°06'0 0.0
2017-Jul-21 21:59N 70°51' E 029°06'0 0.0
2017-Jul-21 21:29N 70°51' E 029°06'0 0.3
2017-Jul-21 21:01N 70°52' E 029°05'0 0.0
2017-Jul-21 20:31N 70°52' E 029°05'0 0.0
2017-Jul-21 20:01N 70°52' E 029°05'0 0.0
2017-Jul-21 19:28N 70°52' E 029°05'0 0.0
2017-Jul-21 19:01N 70°52' E 029°05'0 0.8
2017-Jul-21 18:30N 70°52' E 029°07'3 5.8
2017-Jul-21 18:00N 70°55' E 029°08'3 5.7
2017-Jul-21 17:30N 70°57' E 029°09'1 2.3
2017-Jul-21 17:00N 70°58' E 029°10'0 0.5
2017-Jul-21 16:29N 70°58' E 029°11'0 0.3
2017-Jul-21 15:59N 70°58' E 029°11'0 0.6
2017-Jul-21 15:29N 70°58' E 029°12'0 0.4
2017-Jul-21 15:00N 70°58' E 029°12'0 0.2
2017-Jul-21 14:29N 70°58' E 029°13'0 0.3
2017-Jul-21 14:00N 70°58' E 029°13'0 0.3
2017-Jul-21 13:29N 70°58' E 029°13'0 0.5
2017-Jul-21 13:00N 70°58' E 029°13'0 0.5
2017-Jul-21 12:30N 70°59' E 029°13'0 0.6
2017-Jul-21 11:59N 70°59' E 029°12'0 0.7
2017-Jul-21 11:30N 70°59' E 029°11'3 5.5
2017-Jul-21 10:59N 71°01' E 029°05'1 2.4
2017-Jul-21 10:30N 71°01' E 029°02'1 1.0
2017-Jul-21 10:00N 71°02' E 029°00'0 0.9
2017-Jul-21 09:30N 71°02' E 028°59'0 0.7
2017-Jul-21 08:59N 71°02' E 028°58'0 0.7
2017-Jul-21 08:29N 71°02' E 028°59'3 5.4
2017-Jul-21 08:00N 71°00' E 029°05'2 4.7
2017-Jul-21 07:30N 70°59' E 029°11'2 4.6
2017-Jul-21 07:00N 71°00' E 029°06'2 3.3
2017-Jul-21 06:29N 71°02' E 029°02'3 7.0
2017-Jul-21 06:00N 70°59' E 029°09'2 4.1
2017-Jul-21 05:30N 70°57' E 029°13'0 0.2
2017-Jul-21 05:00N 70°57' E 029°13'3 6.0
2017-Jul-21 04:30N 70°55' E 029°17'4 7.2
2017-Jul-21 04:00N 70°52' E 029°09'1 3.0
2017-Jul-21 03:30N 70°52' E 029°06'0 0.2
2017-Jul-21 03:00N 70°51' E 029°06'0 0.0
2017-Jul-21 02:30N 70°51' E 029°06'0 0.0
2017-Jul-21 02:00N 70°51' E 029°06'0 0.0
2017-Jul-21 01:30N 70°51' E 029°06'0 0.0
2017-Jul-21 01:00N 70°51' E 029°06'0 0.0
2017-Jul-21 00:30N 70°51' E 029°06'0 0.0
2017-Jul-21 00:00N 70°51' E 029°06'0 0.0
2017-Jul-20 23:30N 70°51' E 029°06'0 0.0
2017-Jul-20 23:00N 70°51' E 029°06'0 0.0
2017-Jul-20 22:30N 70°51' E 029°06'0 0.0
2017-Jul-20 22:00N 70°51' E 029°06'0 0.0
2017-Jul-20 21:30N 70°51' E 029°06'0 0.0
2017-Jul-20 21:00N 70°51' E 029°06'0 0.0
2017-Jul-20 20:30N 70°51' E 029°06'0 0.0
2017-Jul-20 20:00N 70°51' E 029°06'0 0.0
2017-Jul-20 19:30N 70°51' E 029°06'0 0.0
2017-Jul-20 19:00N 70°51' E 029°06'0 0.0
2017-Jul-20 18:30N 70°51' E 029°06'0 0.0
2017-Jul-20 18:00N 70°51' E 029°06'0 0.0
2017-Jul-20 17:30N 70°51' E 029°06'0 0.0
2017-Jul-20 17:00N 70°51' E 029°06'0 0.0
2017-Jul-20 16:30N 70°51' E 029°06'0 0.0
2017-Jul-20 16:00N 70°51' E 029°06'0 0.0
2017-Jul-20 15:30N 70°51' E 029°06'0 0.0
2017-Jul-20 15:00N 70°51' E 029°06'0 0.0
2017-Jul-20 14:00N 70°51' E 029°06'0 0.0
2017-Jul-20 13:30N 70°51' E 029°06'0 0.0
2017-Jul-20 13:00N 70°51' E 029°06'0 0.0
2017-Jul-20 12:30N 70°51' E 029°06'0 0.0
2017-Jul-20 12:00N 70°51' E 029°06'0 0.0
2017-Jul-20 11:30N 70°51' E 029°06'0 0.0
2017-Jul-20 11:00N 70°51' E 029°06'0 0.0
2017-Jul-20 10:30N 70°51' E 029°06'0 0.0
2017-Jul-20 10:00N 70°51' E 029°06'0 0.0
2017-Jul-20 09:30N 70°51' E 029°06'0 0.0
2017-Jul-20 09:00N 70°51' E 029°06'0 0.0
2017-Jul-20 08:30N 70°51' E 029°06'0 0.0
2017-Jul-20 08:00N 70°51' E 029°06'0 0.0
2017-Jul-20 07:30N 70°51' E 029°06'0 0.0
2017-Jul-20 07:00N 70°51' E 029°06'0 0.0
2017-Jul-20 06:30N 70°51' E 029°06'0 0.0
2017-Jul-20 06:00N 70°51' E 029°06'0 0.0
2017-Jul-20 05:30N 70°51' E 029°06'0 0.0
2017-Jul-20 05:00N 70°51' E 029°06'0 0.0
2017-Jul-20 04:30N 70°51' E 029°06'0 0.0
2017-Jul-20 04:00N 70°51' E 029°06'0 0.0
2017-Jul-20 03:30N 70°51' E 029°06'0 0.0
2017-Jul-20 03:00N 70°51' E 029°06'0 0.0
2017-Jul-20 02:30N 70°51' E 029°06'0 0.0
2017-Jul-20 02:00N 70°51' E 029°06'0 0.0
2017-Jul-20 01:30N 70°51' E 029°06'0 0.0
2017-Jul-20 01:00N 70°51' E 029°06'0 0.0
2017-Jul-20 00:30N 70°51' E 029°06'0 0.0
2017-Jul-20 00:00N 70°51' E 029°06'0 0.0
2017-Jul-19 23:30N 70°51' E 029°06'0 0.0
2017-Jul-19 23:00N 70°51' E 029°06'0 0.0
2017-Jul-19 22:30N 70°51' E 029°06'0 0.0
2017-Jul-19 22:00N 70°51' E 029°06'0 0.0
2017-Jul-19 21:30N 70°51' E 029°06'0 0.0
2017-Jul-19 21:00N 70°51' E 029°06'0 0.0
2017-Jul-19 20:30N 70°51' E 029°06'0 0.0
2017-Jul-19 20:00N 70°51' E 029°06'0 0.0
2017-Jul-19 19:30N 70°51' E 029°06'0 0.0
2017-Jul-19 19:00N 70°51' E 029°06'0 0.0
2017-Jul-19 18:30N 70°51' E 029°06'0 0.0
2017-Jul-19 18:00N 70°51' E 029°06'0 0.0
2017-Jul-19 17:30N 70°51' E 029°06'0 0.0
2017-Jul-19 17:00N 70°51' E 029°06'0 0.0
2017-Jul-19 16:30N 70°51' E 029°06'0 0.0
2017-Jul-19 16:00N 70°51' E 029°06'0 0.0
2017-Jul-19 15:30N 70°51' E 029°06'0 0.0
2017-Jul-19 15:00N 70°51' E 029°06'0 0.0
2017-Jul-19 14:30N 70°51' E 029°06'0 0.0
2017-Jul-19 14:00N 70°51' E 029°06'0 0.0
2017-Jul-19 13:30N 70°51' E 029°06'0 0.0
2017-Jul-19 13:00N 70°51' E 029°06'0 0.0
2017-Jul-19 12:30N 70°51' E 029°06'0 0.0
2017-Jul-19 12:00N 70°51' E 029°06'0 0.0
2017-Jul-19 11:27N 70°51' E 029°06'0 0.0
2017-Jul-19 11:00N 70°51' E 029°06'0 0.0
2017-Jul-19 10:30N 70°51' E 029°06'0 0.0
2017-Jul-19 10:00N 70°51' E 029°06'0 0.0
2017-Jul-19 09:30N 70°51' E 029°06'0 0.0
2017-Jul-19 09:00N 70°51' E 029°06'0 0.0
2017-Jul-19 08:30N 70°51' E 029°06'0 0.0
2017-Jul-19 08:00N 70°51' E 029°06'0 0.0
2017-Jul-19 07:30N 70°51' E 029°06'0 0.0
2017-Jul-19 07:00N 70°51' E 029°06'0 0.2
2017-Jul-19 06:30N 70°52' E 029°05'0 0.0
2017-Jul-19 06:00N 70°52' E 029°05'0 0.0
2017-Jul-19 05:30N 70°52' E 029°05'0 0.0
2017-Jul-19 05:00N 70°52' E 029°05'0 0.0
2017-Jul-19 04:30N 70°52' E 029°05'1 2.8
2017-Jul-19 04:00N 70°53' E 029°08'3 6.1
2017-Jul-19 03:29N 70°55' E 029°01'3 6.6
2017-Jul-19 03:00N 70°57' E 028°53'3 7.0
2017-Jul-19 02:31N 70°59' E 028°44'4 6.9
2017-Jul-19 02:00N 71°01' E 028°36'4 7.2
2017-Jul-19 01:30N 71°04' E 028°28'4 8.1
2017-Jul-19 01:00N 71°06' E 028°18'4 7.9
2017-Jul-19 00:30N 71°09' E 028°09'4 8.3
2017-Jul-19 00:00N 71°11' E 027°59'4 8.7
2017-Jul-18 23:30N 71°14' E 027°48'2 4.6
2017-Jul-18 23:00N 71°15' E 027°43'1 1.2
2017-Jul-18 22:30N 71°15' E 027°41'0 0.7
2017-Jul-18 22:00N 71°15' E 027°40'0 0.7
2017-Jul-18 21:30N 71°15' E 027°39'0 0.7
2017-Jul-18 21:00N 71°15' E 027°38'1 1.1
2017-Jul-18 20:30N 71°15' E 027°36'1 1.3
2017-Jul-18 20:00N 71°14' E 027°35'1 1.9
2017-Jul-18 19:30N 71°14' E 027°32'1 1.8
2017-Jul-18 18:59N 71°14' E 027°29'1 1.5
2017-Jul-18 18:29N 71°13' E 027°27'1 1.4
2017-Jul-18 18:00N 71°13' E 027°25'1 1.4
2017-Jul-18 17:31N 71°13' E 027°23'1 1.2
2017-Jul-18 17:00N 71°13' E 027°21'0 0.4
2017-Jul-18 16:29N 71°12' E 027°21'0 0.2
2017-Jul-18 16:00N 71°12' E 027°21'0 0.3
2017-Jul-18 15:29N 71°12' E 027°22'0 0.1
2017-Jul-18 15:00N 71°12' E 027°22'3 2.8
2017-Jul-18 13:59N 71°14' E 027°28'2 3.1
2017-Jul-18 13:30N 71°13' E 027°30'3 5.5
2017-Jul-18 13:00N 71°12' E 027°22'1 1.2
2017-Jul-18 12:30N 71°12' E 027°21'3 5.8
2017-Jul-18 12:00N 71°13' E 027°30'3 6.4
2017-Jul-18 11:30N 71°13' E 027°40'3 6.3
2017-Jul-18 10:59N 71°12' E 027°50'3 6.1
2017-Jul-18 10:30N 71°12' E 027°59'3 6.1
2017-Jul-18 09:59N 71°10' E 028°07'3 6.5
2017-Jul-18 09:30N 71°09' E 028°16'1 1.4
2017-Jul-18 09:00N 71°09' E 028°18'3 5.7
2017-Jul-18 08:30N 71°08' E 028°26'3 6.4
2017-Jul-18 08:00N 71°07' E 028°36'4 7.2
2017-Jul-18 07:31N 71°05' E 028°45'4 7.4
2017-Jul-18 07:00N 71°03' E 028°54'4 7.3
2017-Jul-18 06:30N 71°01' E 029°03'4 7.3
2017-Jul-18 06:00N 70°59' E 029°13'4 7.2
2017-Jul-18 05:30N 70°56' E 029°20'1 2.6
2017-Jul-18 05:00N 70°55' E 029°22'2 3.7
2017-Jul-18 04:30N 70°55' E 029°16'3 6.9
2017-Jul-18 04:00N 70°52' E 029°09'2 3.1
2017-Jul-18 03:30N 70°52' E 029°05'0 0.2
2017-Jul-18 02:59N 70°51' E 029°06'0 0.0
2017-Jul-18 02:29N 70°51' E 029°06'0 0.0
2017-Jul-18 01:59N 70°51' E 029°06'0 0.0
2017-Jul-18 01:29N 70°51' E 029°06'0 0.0
2017-Jul-18 00:59N 70°51' E 029°06'0 0.0
2017-Jul-18 00:26N 70°51' E 029°06'0 0.0
2017-Jul-17 23:59N 70°51' E 029°06'0 0.0
2017-Jul-17 23:29N 70°51' E 029°06'0 0.0
2017-Jul-17 22:59N 70°51' E 029°06'0 0.0
2017-Jul-17 22:29N 70°51' E 029°06'0 0.0
2017-Jul-17 21:59N 70°51' E 029°06'0 0.0
2017-Jul-17 21:29N 70°51' E 029°06'0 0.0
2017-Jul-17 20:56N 70°51' E 029°06'0 0.0
2017-Jul-17 20:29N 70°51' E 029°06'0 0.0
2017-Jul-17 19:59N 70°51' E 029°06'0 0.0
2017-Jul-17 19:29N 70°51' E 029°06'0 0.0
2017-Jul-17 18:59N 70°51' E 029°06'0 0.0
2017-Jul-17 18:29N 70°51' E 029°06'0 0.0
2017-Jul-17 17:59N 70°51' E 029°06'0 0.0
2017-Jul-17 17:29N 70°51' E 029°06'0 0.0
2017-Jul-17 16:59N 70°51' E 029°06'0 0.0
2017-Jul-17 16:29N 70°51' E 029°06'0 0.0
2017-Jul-17 15:56N 70°51' E 029°06'0 0.3
2017-Jul-17 15:30N 70°52' E 029°05'0 0.0
2017-Jul-17 15:00N 70°52' E 029°05'0 0.0
2017-Jul-17 14:30N 70°52' E 029°05'0 0.0
2017-Jul-17 14:00N 70°52' E 029°05'2 3.3
2017-Jul-17 13:30N 70°52' E 029°10'4 7.2
2017-Jul-17 12:59N 70°53' E 029°21'2 5.0
2017-Jul-17 12:29N 70°53' E 029°29'0 0.6
2017-Jul-17 12:00N 70°53' E 029°28'0 0.7
2017-Jul-17 11:30N 70°53' E 029°27'0 0.8
2017-Jul-17 11:00N 70°54' E 029°27'1 1.0
2017-Jul-17 10:29N 70°54' E 029°26'1 1.1
2017-Jul-17 10:00N 70°54' E 029°25'1 1.3
2017-Jul-17 09:29N 70°55' E 029°23'1 1.4
2017-Jul-17 09:00N 70°55' E 029°22'1 1.5
2017-Jul-17 08:29N 70°56' E 029°20'1 1.4
2017-Jul-17 08:00N 70°56' E 029°18'1 1.3
2017-Jul-17 07:29N 70°57' E 029°17'0 0.8
2017-Jul-17 07:00N 70°57' E 029°16'3 5.2
2017-Jul-17 06:30N 70°55' E 029°21'2 4.3
2017-Jul-17 06:00N 70°53' E 029°25'3 5.8
2017-Jul-17 05:30N 70°55' E 029°19'2 4.7
2017-Jul-17 05:00N 70°57' E 029°14'3 5.1
2017-Jul-17 04:30N 70°55' E 029°16'4 7.5
2017-Jul-17 04:00N 70°52' E 029°08'1 1.9
2017-Jul-17 03:30N 70°51' E 029°06'0 0.0
2017-Jul-17 03:00N 70°51' E 029°06'0 0.0
2017-Jul-17 02:30N 70°51' E 029°06'0 0.0
2017-Jul-17 02:00N 70°51' E 029°06'0 0.0
2017-Jul-17 01:30N 70°51' E 029°06'0 0.0
2017-Jul-17 01:00N 70°51' E 029°06'0 0.0
2017-Jul-17 00:30N 70°51' E 029°06'0 0.0
2017-Jul-17 00:00N 70°51' E 029°06'0 0.0
2017-Jul-16 23:30N 70°51' E 029°06'0 0.0
2017-Jul-16 23:00N 70°51' E 029°06'0 0.0
2017-Jul-16 22:30N 70°51' E 029°06'0 0.0
2017-Jul-16 21:57N 70°51' E 029°06'0 0.0
2017-Jul-16 21:30N 70°51' E 029°06'0 0.0
2017-Jul-16 21:00N 70°51' E 029°06'0 0.0
2017-Jul-16 20:30N 70°51' E 029°06'0 0.0
2017-Jul-16 20:00N 70°51' E 029°06'0 0.0
2017-Jul-16 19:30N 70°51' E 029°06'0 0.0
2017-Jul-16 19:00N 70°51' E 029°06'0 0.0
2017-Jul-16 18:30N 70°51' E 029°06'0 0.0
2017-Jul-16 18:00N 70°51' E 029°06'0 0.0
2017-Jul-16 17:30N 70°51' E 029°06'0 0.0
2017-Jul-16 17:00N 70°51' E 029°06'0 0.0
2017-Jul-16 16:30N 70°51' E 029°06'0 0.0
2017-Jul-16 16:00N 70°51' E 029°06'0 0.0
2017-Jul-16 15:30N 70°51' E 029°06'0 0.2
2017-Jul-16 15:00N 70°52' E 029°05'0 0.0
2017-Jul-16 14:30N 70°52' E 029°05'1 1.3
2017-Jul-16 14:00N 70°52' E 029°07'3 6.9
2017-Jul-16 13:30N 70°54' E 029°15'2 4.4
2017-Jul-16 13:00N 70°56' E 029°20'0 0.7
2017-Jul-16 12:30N 70°56' E 029°19'0 0.7
2017-Jul-16 11:59N 70°56' E 029°18'0 0.3
2017-Jul-16 11:31N 70°56' E 029°18'0 0.5
2017-Jul-16 11:00N 70°56' E 029°17'0 0.6
2017-Jul-16 10:30N 70°56' E 029°16'0 0.5
2017-Jul-16 10:01N 70°56' E 029°17'2 3.2
2017-Jul-16 09:29N 70°55' E 029°21'0 0.6
2017-Jul-16 08:58N 70°55' E 029°22'0 0.3
2017-Jul-16 08:30N 70°55' E 029°22'0 0.4
2017-Jul-16 07:59N 70°55' E 029°22'0 0.4
2017-Jul-16 07:29N 70°55' E 029°22'0 0.1
2017-Jul-16 06:59N 70°55' E 029°22'2 5.0
2017-Jul-16 06:30N 70°56' E 029°17'2 4.9
2017-Jul-16 06:00N 70°58' E 029°11'3 5.3
2017-Jul-16 05:30N 70°56' E 029°17'1 2.5
2017-Jul-16 05:00N 70°55' E 029°19'1 2.6
2017-Jul-16 04:30N 70°54' E 029°17'4 7.1
2017-Jul-16 04:00N 70°52' E 029°08'1 1.9
2017-Jul-16 03:28N 70°51' E 029°06'0 0.0
2017-Jul-16 02:58N 70°51' E 029°06'0 0.0
2017-Jul-16 02:28N 70°51' E 029°06'0 0.0
2017-Jul-16 01:58N 70°51' E 029°06'0 0.0
2017-Jul-16 01:28N 70°51' E 029°06'0 0.0
2017-Jul-16 00:58N 70°51' E 029°06'0 0.0
2017-Jul-16 00:28N 70°51' E 029°06'0 0.0
2017-Jul-15 23:58N 70°51' E 029°06'0 0.0
2017-Jul-15 23:28N 70°51' E 029°06'0 0.0
2017-Jul-15 22:58N 70°51' E 029°06'0 0.0
2017-Jul-15 22:28N 70°51' E 029°06'0 0.0
2017-Jul-15 21:58N 70°51' E 029°06'0 0.0
2017-Jul-15 21:28N 70°51' E 029°06'0 0.0
2017-Jul-15 20:58N 70°51' E 029°06'0 0.0
2017-Jul-15 20:28N 70°51' E 029°06'0 0.0
2017-Jul-15 19:58N 70°51' E 029°06'0 0.0
2017-Jul-15 19:28N 70°51' E 029°06'0 0.0
2017-Jul-15 18:58N 70°51' E 029°06'0 0.0
2017-Jul-15 18:28N 70°51' E 029°06'0 0.0
2017-Jul-15 17:58N 70°51' E 029°06'0 0.0
2017-Jul-15 17:28N 70°51' E 029°06'0 0.0
2017-Jul-15 16:58N 70°51' E 029°06'0 0.0
2017-Jul-15 16:28N 70°51' E 029°06'0 0.0
2017-Jul-15 15:58N 70°51' E 029°06'0 0.0
2017-Jul-15 15:28N 70°51' E 029°06'0 0.3
2017-Jul-15 15:01N 70°52' E 029°05'1 1.0
2017-Jul-15 14:01N 70°52' E 029°08'4 7.3
2017-Jul-15 13:30N 70°55' E 029°16'2 3.4
2017-Jul-15 12:59N 70°56' E 029°21'0 0.3
2017-Jul-15 12:30N 70°56' E 029°20'0 0.4
2017-Jul-15 12:00N 70°56' E 029°20'0 0.5
2017-Jul-15 11:30N 70°56' E 029°20'0 0.2
2017-Jul-15 10:59N 70°56' E 029°20'0 0.1
2017-Jul-15 10:30N 70°56' E 029°20'0 0.6
2017-Jul-15 10:00N 70°56' E 029°19'0 0.8
2017-Jul-15 09:30N 70°56' E 029°18'0 1.0
2017-Jul-15 09:00N 70°56' E 029°16'0 1.0
2017-Jul-15 08:29N 70°56' E 029°15'1 1.6
2017-Jul-15 07:59N 70°57' E 029°14'1 1.1
2017-Jul-15 07:30N 70°57' E 029°13'0 0.9
2017-Jul-15 07:00N 70°58' E 029°12'0 0.7
2017-Jul-15 06:30N 70°57' E 029°13'1 2.8
2017-Jul-15 06:00N 70°58' E 029°10'2 4.9
2017-Jul-15 05:30N 70°57' E 029°15'2 4.6
2017-Jul-15 05:00N 70°55' E 029°20'1 3.0
2017-Jul-15 04:30N 70°54' E 029°16'4 7.0
2017-Jul-15 04:00N 70°52' E 029°08'1 1.6
2017-Jul-15 03:30N 70°51' E 029°06'0 0.0
2017-Jul-15 03:00N 70°51' E 029°06'0 0.0
2017-Jul-15 02:30N 70°51' E 029°06'0 0.0
2017-Jul-15 02:00N 70°51' E 029°06'0 0.0
2017-Jul-15 01:30N 70°51' E 029°06'0 0.0
2017-Jul-15 01:00N 70°51' E 029°06'0 0.0
2017-Jul-15 00:30N 70°51' E 029°06'0 0.0
2017-Jul-15 00:00N 70°51' E 029°06'0 0.0
2017-Jul-14 23:30N 70°51' E 029°06'0 0.0
2017-Jul-14 23:00N 70°51' E 029°06'0 0.0
2017-Jul-14 22:27N 70°51' E 029°06'0 0.0
2017-Jul-14 22:00N 70°51' E 029°06'0 0.0
2017-Jul-14 21:30N 70°51' E 029°06'0 0.0
2017-Jul-14 21:00N 70°51' E 029°06'0 0.0
2017-Jul-14 20:30N 70°51' E 029°06'0 0.0
2017-Jul-14 20:00N 70°51' E 029°06'0 0.0
2017-Jul-14 19:30N 70°51' E 029°06'0 0.7
2017-Jul-14 19:00N 70°51' E 029°07'0 0.7
2017-Jul-14 18:29N 70°51' E 029°06'0 0.0
2017-Jul-14 17:59N 70°51' E 029°06'0 0.0
2017-Jul-14 17:29N 70°51' E 029°06'0 0.0
2017-Jul-14 16:59N 70°51' E 029°06'0 0.0
2017-Jul-14 16:29N 70°51' E 029°06'0 0.0
2017-Jul-14 16:00N 70°51' E 029°06'0 0.2
2017-Jul-14 15:30N 70°52' E 029°05'0 0.0
2017-Jul-14 15:00N 70°52' E 029°05'2 3.5
2017-Jul-14 14:30N 70°53' E 029°10'4 7.1
2017-Jul-14 14:00N 70°55' E 029°19'0 0.1
2017-Jul-14 11:28N 70°55' E 029°19'0 0.4
2017-Jul-14 10:59N 70°55' E 029°18'0 0.6
2017-Jul-14 10:30N 70°55' E 029°17'0 0.5
2017-Jul-14 10:00N 70°55' E 029°17'0 0.8
2017-Jul-14 09:29N 70°56' E 029°16'0 0.9
2017-Jul-14 09:00N 70°56' E 029°15'1 1.1
2017-Jul-14 08:30N 70°56' E 029°14'0 0.6
2017-Jul-14 08:00N 70°57' E 029°14'2 4.9
2017-Jul-14 07:30N 70°55' E 029°20'2 3.4
2017-Jul-14 06:59N 70°54' E 029°23'3 5.3
2017-Jul-14 06:30N 70°56' E 029°18'3 5.2
2017-Jul-14 06:00N 70°58' E 029°12'1 1.4
2017-Jul-14 05:29N 70°57' E 029°14'3 5.7
2017-Jul-14 04:59N 70°55' E 029°20'2 4.1
2017-Jul-14 04:30N 70°53' E 029°17'4 7.4
2017-Jul-14 04:00N 70°52' E 029°07'0 0.8
2017-Jul-14 03:28N 70°51' E 029°06'0 0.0
2017-Jul-14 02:58N 70°51' E 029°06'0 0.0
2017-Jul-14 02:28N 70°51' E 029°06'0 0.0
2017-Jul-14 01:58N 70°51' E 029°06'0 0.0
2017-Jul-14 01:28N 70°51' E 029°06'0 0.0
2017-Jul-14 00:58N 70°51' E 029°06'0 0.0
2017-Jul-14 00:28N 70°51' E 029°06'0 0.0
2017-Jul-13 23:58N 70°51' E 029°06'0 0.0
2017-Jul-13 23:28N 70°51' E 029°06'0 0.0
2017-Jul-13 22:58N 70°51' E 029°06'0 0.0
2017-Jul-13 22:28N 70°51' E 029°06'0 0.0
2017-Jul-13 21:58N 70°51' E 029°06'0 0.0
2017-Jul-13 21:28N 70°51' E 029°06'0 0.0
2017-Jul-13 20:58N 70°51' E 029°06'0 0.0
2017-Jul-13 20:28N 70°51' E 029°06'0 0.0
2017-Jul-13 19:58N 70°51' E 029°06'0 0.0
2017-Jul-13 19:28N 70°51' E 029°06'0 0.0
2017-Jul-13 18:58N 70°51' E 029°06'0 0.0
2017-Jul-13 18:28N 70°51' E 029°06'0 0.0
2017-Jul-13 17:58N 70°51' E 029°06'0 0.0
2017-Jul-13 17:28N 70°51' E 029°06'0 0.0
2017-Jul-13 16:58N 70°51' E 029°06'0 0.0
2017-Jul-13 16:28N 70°51' E 029°06'0 0.0
2017-Jul-13 15:55N 70°51' E 029°06'0 0.0
2017-Jul-13 15:28N 70°51' E 029°06'0 0.7
2017-Jul-13 14:59N 70°51' E 029°07'0 1.0
2017-Jul-13 14:30N 70°52' E 029°05'0 0.0
2017-Jul-13 13:57N 70°52' E 029°05'0 0.0
2017-Jul-13 13:30N 70°52' E 029°05'0 0.3
2017-Jul-13 12:59N 70°52' E 029°06'3 6.3
2017-Jul-13 12:29N 70°54' E 029°13'2 4.7
2017-Jul-13 11:59N 70°55' E 029°18'0 0.6
2017-Jul-13 11:30N 70°55' E 029°19'0 0.7
2017-Jul-13 11:00N 70°55' E 029°19'1 1.4
2017-Jul-13 10:29N 70°55' E 029°20'1 1.4
2017-Jul-13 10:00N 70°54' E 029°22'1 1.4
2017-Jul-13 09:30N 70°54' E 029°24'1 1.2
2017-Jul-13 09:00N 70°54' E 029°26'1 1.0
2017-Jul-13 08:30N 70°53' E 029°27'0 0.9
2017-Jul-13 08:00N 70°53' E 029°28'0 0.5
2017-Jul-13 07:30N 70°53' E 029°28'0 0.2
2017-Jul-13 06:59N 70°53' E 029°28'1 2.7
2017-Jul-13 06:30N 70°54' E 029°25'3 6.5
2017-Jul-13 06:00N 70°56' E 029°18'0 0.9
2017-Jul-13 05:29N 70°56' E 029°19'3 5.5
2017-Jul-13 05:00N 70°54' E 029°24'2 3.5
2017-Jul-13 04:30N 70°54' E 029°19'4 7.6
2017-Jul-13 04:00N 70°52' E 029°09'1 2.5
2017-Jul-13 03:29N 70°51' E 029°06'0 0.0
2017-Jul-13 02:59N 70°51' E 029°06'0 0.0
2017-Jul-13 02:29N 70°51' E 029°06'0 0.0
2017-Jul-13 01:59N 70°51' E 029°06'0 0.0
2017-Jul-13 01:29N 70°51' E 029°06'0 0.0
2017-Jul-13 00:59N 70°51' E 029°06'0 0.0
2017-Jul-13 00:29N 70°51' E 029°06'0 0.0
2017-Jul-12 23:56N 70°51' E 029°06'0 0.0
2017-Jul-12 23:29N 70°51' E 029°06'0 0.0
2017-Jul-12 22:59N 70°51' E 029°06'0 0.0
2017-Jul-12 22:29N 70°51' E 029°06'0 0.0
2017-Jul-12 21:56N 70°51' E 029°06'0 0.0
2017-Jul-12 21:29N 70°51' E 029°06'0 0.0
2017-Jul-12 20:59N 70°51' E 029°06'0 0.0
2017-Jul-12 20:29N 70°51' E 029°06'0 0.0
2017-Jul-12 19:59N 70°51' E 029°06'0 0.0
2017-Jul-12 19:29N 70°51' E 029°06'0 0.0
2017-Jul-12 18:59N 70°51' E 029°06'0 0.0
2017-Jul-12 18:29N 70°51' E 029°06'0 0.0
2017-Jul-12 17:59N 70°51' E 029°06'0 0.0
2017-Jul-12 17:29N 70°51' E 029°06'0 0.0
2017-Jul-12 16:59N 70°51' E 029°06'0 0.0
2017-Jul-12 16:29N 70°51' E 029°06'0 0.0
2017-Jul-12 15:59N 70°51' E 029°06'0 0.2
2017-Jul-12 15:29N 70°52' E 029°05'0 0.0
2017-Jul-12 14:59N 70°52' E 029°05'3 2.6
2017-Jul-12 13:59N 70°54' E 029°10'3 6.2
2017-Jul-12 13:30N 70°56' E 029°15'0 0.7
2017-Jul-12 13:00N 70°56' E 029°16'0 0.1
2017-Jul-12 12:30N 70°56' E 029°15'0 0.4
2017-Jul-12 11:59N 70°56' E 029°15'0 0.4
2017-Jul-12 11:30N 70°56' E 029°14'0 0.6
2017-Jul-12 10:59N 70°56' E 029°14'0 0.5
2017-Jul-12 10:30N 70°56' E 029°13'0 0.4
2017-Jul-12 10:00N 70°56' E 029°13'0 0.6
2017-Jul-12 09:29N 70°56' E 029°13'0 0.7
2017-Jul-12 09:00N 70°57' E 029°13'0 0.3
2017-Jul-12 08:30N 70°57' E 029°13'1 1.0
2017-Jul-12 08:00N 70°57' E 029°13'0 1.0
2017-Jul-12 07:29N 70°57' E 029°15'0 0.6
2017-Jul-12 07:00N 70°57' E 029°14'  
Track history (hours):
 
Tides and Currents Weather Stations Pressure Air Temp Water Temp Dewpoint Dewpoint Depression Visibility Wind Speed Wind Dir Waves Ship Positions

Nonstind

Last reported at 2017-Jul-22 06:30 UTC. Time now 2017-Jul-22 06:45 UTC.
Position N 70°60' E 029°04'.

Length 12 m.

Type: Fishing. MMSI: 257150140.

Date/timePositionNaut miles runAvg speedWind from/ knotsBaromVisibWave heightAir tempDewpointWater temp
2017-Jul-22 06:30N 70°60' E 029°04'1 1.8
2017-Jul-22 06:00N 70°59' E 029°06'1 1.8
2017-Jul-22 05:30N 70°58' E 029°08'1 1.4
2017-Jul-22 04:59N 70°58' E 029°09'1 1.1
2017-Jul-22 04:30N 70°58' E 029°09'3 6.0
2017-Jul-22 04:00N 71°01' E 029°03'1 2.3
2017-Jul-22 03:30N 71°01' E 028°60'3 5.3
2017-Jul-22 03:00N 70°60' E 029°06'1 2.0
2017-Jul-22 02:30N 70°59' E 029°09'1 1.9
2017-Jul-22 02:00N 70°58' E 029°10'3 6.7
2017-Jul-22 01:30N 70°55' E 029°10'3 6.9
2017-Jul-22 01:00N 70°52' E 029°07'0 0.8
2017-Jul-22 00:29N 70°51' E 029°06'0 0.0
2017-Jul-21 23:59N 70°51' E 029°06'0 0.0
2017-Jul-21 23:29N 70°51' E 029°06'0 0.0
2017-Jul-21 22:59N 70°51' E 029°06'0 0.0
2017-Jul-21 22:29N 70°51' E 029°06'0 0.0
2017-Jul-21 21:59N 70°51' E 029°06'0 0.0
2017-Jul-21 21:29N 70°51' E 029°06'0 0.3
2017-Jul-21 21:01N 70°52' E 029°05'0 0.0
2017-Jul-21 20:31N 70°52' E 029°05'0 0.0
2017-Jul-21 20:01N 70°52' E 029°05'0 0.0
2017-Jul-21 19:28N 70°52' E 029°05'0 0.0
2017-Jul-21 19:01N 70°52' E 029°05'0 0.8
2017-Jul-21 18:30N 70°52' E 029°07'3 5.8
2017-Jul-21 18:00N 70°55' E 029°08'3 5.7
2017-Jul-21 17:30N 70°57' E 029°09'1 2.3
2017-Jul-21 17:00N 70°58' E 029°10'0 0.5
2017-Jul-21 16:29N 70°58' E 029°11'0 0.3
2017-Jul-21 15:59N 70°58' E 029°11'0 0.6
2017-Jul-21 15:29N 70°58' E 029°12'0 0.4
2017-Jul-21 15:00N 70°58' E 029°12'0 0.2
2017-Jul-21 14:29N 70°58' E 029°13'0 0.3
2017-Jul-21 14:00N 70°58' E 029°13'0 0.3
2017-Jul-21 13:29N 70°58' E 029°13'0 0.5
2017-Jul-21 13:00N 70°58' E 029°13'0 0.5
2017-Jul-21 12:30N 70°59' E 029°13'0 0.6
2017-Jul-21 11:59N 70°59' E 029°12'0 0.7
2017-Jul-21 11:30N 70°59' E 029°11'3 5.5
2017-Jul-21 10:59N 71°01' E 029°05'1 2.4
2017-Jul-21 10:30N 71°01' E 029°02'1 1.0
2017-Jul-21 10:00N 71°02' E 029°00'0 0.9
2017-Jul-21 09:30N 71°02' E 028°59'0 0.7
2017-Jul-21 08:59N 71°02' E 028°58'0 0.7
2017-Jul-21 08:29N 71°02' E 028°59'3 5.4
2017-Jul-21 08:00N 71°00' E 029°05'2 4.7
2017-Jul-21 07:30N 70°59' E 029°11'2 4.6
2017-Jul-21 07:00N 71°00' E 029°06'2 3.3
2017-Jul-21 06:29N 71°02' E 029°02'3 7.0
2017-Jul-21 06:00N 70°59' E 029°09'2 4.1
2017-Jul-21 05:30N 70°57' E 029°13'0 0.2
2017-Jul-21 05:00N 70°57' E 029°13'3 6.0
2017-Jul-21 04:30N 70°55' E 029°17'4 7.2
2017-Jul-21 04:00N 70°52' E 029°09'1 3.0
2017-Jul-21 03:30N 70°52' E 029°06'0 0.2
2017-Jul-21 03:00N 70°51' E 029°06'0 0.0
2017-Jul-21 02:30N 70°51' E 029°06'0 0.0
2017-Jul-21 02:00N 70°51' E 029°06'0 0.0
2017-Jul-21 01:30N 70°51' E 029°06'0 0.0
2017-Jul-21 01:00N 70°51' E 029°06'0 0.0
2017-Jul-21 00:30N 70°51' E 029°06'0 0.0
2017-Jul-21 00:00N 70°51' E 029°06'0 0.0
2017-Jul-20 23:30N 70°51' E 029°06'0 0.0
2017-Jul-20 23:00N 70°51' E 029°06'0 0.0
2017-Jul-20 22:30N 70°51' E 029°06'0 0.0
2017-Jul-20 22:00N 70°51' E 029°06'0 0.0
2017-Jul-20 21:30N 70°51' E 029°06'0 0.0
2017-Jul-20 21:00N 70°51' E 029°06'0 0.0
2017-Jul-20 20:30N 70°51' E 029°06'0 0.0
2017-Jul-20 20:00N 70°51' E 029°06'0 0.0
2017-Jul-20 19:30N 70°51' E 029°06'0 0.0
2017-Jul-20 19:00N 70°51' E 029°06'0 0.0
2017-Jul-20 18:30N 70°51' E 029°06'0 0.0
2017-Jul-20 18:00N 70°51' E 029°06'0 0.0
2017-Jul-20 17:30N 70°51' E 029°06'0 0.0
2017-Jul-20 17:00N 70°51' E 029°06'0 0.0
2017-Jul-20 16:30N 70°51' E 029°06'0 0.0
2017-Jul-20 16:00N 70°51' E 029°06'0 0.0
2017-Jul-20 15:30N 70°51' E 029°06'0 0.0
2017-Jul-20 15:00N 70°51' E 029°06'0 0.0
2017-Jul-20 14:00N 70°51' E 029°06'0 0.0
2017-Jul-20 13:30N 70°51' E 029°06'0 0.0
2017-Jul-20 13:00N 70°51' E 029°06'0 0.0
2017-Jul-20 12:30N 70°51' E 029°06'0 0.0
2017-Jul-20 12:00N 70°51' E 029°06'0 0.0
2017-Jul-20 11:30N 70°51' E 029°06'0 0.0
2017-Jul-20 11:00N 70°51' E 029°06'0 0.0
2017-Jul-20 10:30N 70°51' E 029°06'0 0.0
2017-Jul-20 10:00N 70°51' E 029°06'0 0.0
2017-Jul-20 09:30N 70°51' E 029°06'0 0.0
2017-Jul-20 09:00N 70°51' E 029°06'0 0.0
2017-Jul-20 08:30N 70°51' E 029°06'0 0.0
2017-Jul-20 08:00N 70°51' E 029°06'0 0.0
2017-Jul-20 07:30N 70°51' E 029°06'0 0.0
2017-Jul-20 07:00N 70°51' E 029°06'0 0.0
2017-Jul-20 06:30N 70°51' E 029°06'0 0.0
2017-Jul-20 06:00N 70°51' E 029°06'0 0.0
2017-Jul-20 05:30N 70°51' E 029°06'0 0.0
2017-Jul-20 05:00N 70°51' E 029°06'0 0.0
2017-Jul-20 04:30N 70°51' E 029°06'0 0.0
2017-Jul-20 04:00N 70°51' E 029°06'0 0.0
2017-Jul-20 03:30N 70°51' E 029°06'0 0.0
2017-Jul-20 03:00N 70°51' E 029°06'0 0.0
2017-Jul-20 02:30N 70°51' E 029°06'0 0.0
2017-Jul-20 02:00N 70°51' E 029°06'0 0.0
2017-Jul-20 01:30N 70°51' E 029°06'0 0.0
2017-Jul-20 01:00N 70°51' E 029°06'0 0.0
2017-Jul-20 00:30N 70°51' E 029°06'0 0.0
2017-Jul-20 00:00N 70°51' E 029°06'0 0.0
2017-Jul-19 23:30N 70°51' E 029°06'0 0.0
2017-Jul-19 23:00N 70°51' E 029°06'0 0.0
2017-Jul-19 22:30N 70°51' E 029°06'0 0.0
2017-Jul-19 22:00N 70°51' E 029°06'0 0.0
2017-Jul-19 21:30N 70°51' E 029°06'0 0.0
2017-Jul-19 21:00N 70°51' E 029°06'0 0.0
2017-Jul-19 20:30N 70°51' E 029°06'0 0.0
2017-Jul-19 20:00N 70°51' E 029°06'0 0.0
2017-Jul-19 19:30N 70°51' E 029°06'0 0.0
2017-Jul-19 19:00N 70°51' E 029°06'0 0.0
2017-Jul-19 18:30N 70°51' E 029°06'0 0.0
2017-Jul-19 18:00N 70°51' E 029°06'0 0.0
2017-Jul-19 17:30N 70°51' E 029°06'0 0.0
2017-Jul-19 17:00N 70°51' E 029°06'0 0.0
2017-Jul-19 16:30N 70°51' E 029°06'0 0.0
2017-Jul-19 16:00N 70°51' E 029°06'0 0.0
2017-Jul-19 15:30N 70°51' E 029°06'0 0.0
2017-Jul-19 15:00N 70°51' E 029°06'0 0.0
2017-Jul-19 14:30N 70°51' E 029°06'0 0.0
2017-Jul-19 14:00N 70°51' E 029°06'0 0.0
2017-Jul-19 13:30N 70°51' E 029°06'0 0.0
2017-Jul-19 13:00N 70°51' E 029°06'0 0.0
2017-Jul-19 12:30N 70°51' E 029°06'0 0.0
2017-Jul-19 12:00N 70°51' E 029°06'0 0.0
2017-Jul-19 11:27N 70°51' E 029°06'0 0.0
2017-Jul-19 11:00N 70°51' E 029°06'0 0.0
2017-Jul-19 10:30N 70°51' E 029°06'0 0.0
2017-Jul-19 10:00N 70°51' E 029°06'0 0.0
2017-Jul-19 09:30N 70°51' E 029°06'0 0.0
2017-Jul-19 09:00N 70°51' E 029°06'0 0.0
2017-Jul-19 08:30N 70°51' E 029°06'0 0.0
2017-Jul-19 08:00N 70°51' E 029°06'0 0.0
2017-Jul-19 07:30N 70°51' E 029°06'0 0.0
2017-Jul-19 07:00N 70°51' E 029°06'0 0.2
2017-Jul-19 06:30N 70°52' E 029°05'0 0.0
2017-Jul-19 06:00N 70°52' E 029°05'0 0.0
2017-Jul-19 05:30N 70°52' E 029°05'0 0.0
2017-Jul-19 05:00N 70°52' E 029°05'0 0.0
2017-Jul-19 04:30N 70°52' E 029°05'1 2.8
2017-Jul-19 04:00N 70°53' E 029°08'3 6.1
2017-Jul-19 03:29N 70°55' E 029°01'3 6.6
2017-Jul-19 03:00N 70°57' E 028°53'3 7.0
2017-Jul-19 02:31N 70°59' E 028°44'4 6.9
2017-Jul-19 02:00N 71°01' E 028°36'4 7.2
2017-Jul-19 01:30N 71°04' E 028°28'4 8.1
2017-Jul-19 01:00N 71°06' E 028°18'4 7.9
2017-Jul-19 00:30N 71°09' E 028°09'4 8.3
2017-Jul-19 00:00N 71°11' E 027°59'4 8.7
2017-Jul-18 23:30N 71°14' E 027°48'2 4.6
2017-Jul-18 23:00N 71°15' E 027°43'1 1.2
2017-Jul-18 22:30N 71°15' E 027°41'0 0.7
2017-Jul-18 22:00N 71°15' E 027°40'0 0.7
2017-Jul-18 21:30N 71°15' E 027°39'0 0.7
2017-Jul-18 21:00N 71°15' E 027°38'1 1.1
2017-Jul-18 20:30N 71°15' E 027°36'1 1.3
2017-Jul-18 20:00N 71°14' E 027°35'1 1.9
2017-Jul-18 19:30N 71°14' E 027°32'1 1.8
2017-Jul-18 18:59N 71°14' E 027°29'1 1.5
2017-Jul-18 18:29N 71°13' E 027°27'1 1.4
2017-Jul-18 18:00N 71°13' E 027°25'1 1.4
2017-Jul-18 17:31N 71°13' E 027°23'1 1.2
2017-Jul-18 17:00N 71°13' E 027°21'0 0.4
2017-Jul-18 16:29N 71°12' E 027°21'0 0.2
2017-Jul-18 16:00N 71°12' E 027°21'0 0.3
2017-Jul-18 15:29N 71°12' E 027°22'0 0.1
2017-Jul-18 15:00N 71°12' E 027°22'3 2.8
2017-Jul-18 13:59N 71°14' E 027°28'2 3.1
2017-Jul-18 13:30N 71°13' E 027°30'3 5.5
2017-Jul-18 13:00N 71°12' E 027°22'1 1.2
2017-Jul-18 12:30N 71°12' E 027°21'3 5.8
2017-Jul-18 12:00N 71°13' E 027°30'3 6.4
2017-Jul-18 11:30N 71°13' E 027°40'3 6.3
2017-Jul-18 10:59N 71°12' E 027°50'3 6.1
2017-Jul-18 10:30N 71°12' E 027°59'3 6.1
2017-Jul-18 09:59N 71°10' E 028°07'3 6.5
2017-Jul-18 09:30N 71°09' E 028°16'1 1.4
2017-Jul-18 09:00N 71°09' E 028°18'3 5.7
2017-Jul-18 08:30N 71°08' E 028°26'3 6.4
2017-Jul-18 08:00N 71°07' E 028°36'4 7.2
2017-Jul-18 07:31N 71°05' E 028°45'4 7.4
2017-Jul-18 07:00N 71°03' E 028°54'4 7.3
2017-Jul-18 06:30N 71°01' E 029°03'4 7.3
2017-Jul-18 06:00N 70°59' E 029°13'4 7.2
2017-Jul-18 05:30N 70°56' E 029°20'1 2.6
2017-Jul-18 05:00N 70°55' E 029°22'2 3.7
2017-Jul-18 04:30N 70°55' E 029°16'3 6.9
2017-Jul-18 04:00N 70°52' E 029°09'2 3.1
2017-Jul-18 03:30N 70°52' E 029°05'0 0.2
2017-Jul-18 02:59N 70°51' E 029°06'0 0.0
2017-Jul-18 02:29N 70°51' E 029°06'0 0.0
2017-Jul-18 01:59N 70°51' E 029°06'0 0.0
2017-Jul-18 01:29N 70°51' E 029°06'0 0.0
2017-Jul-18 00:59N 70°51' E 029°06'0 0.0
2017-Jul-18 00:26N 70°51' E 029°06'0 0.0
2017-Jul-17 23:59N 70°51' E 029°06'0 0.0
2017-Jul-17 23:29N 70°51' E 029°06'0 0.0
2017-Jul-17 22:59N 70°51' E 029°06'0 0.0
2017-Jul-17 22:29N 70°51' E 029°06'0 0.0
2017-Jul-17 21:59N 70°51' E 029°06'0 0.0
2017-Jul-17 21:29N 70°51' E 029°06'0 0.0
2017-Jul-17 20:56N 70°51' E 029°06'0 0.0
2017-Jul-17 20:29N 70°51' E 029°06'0 0.0
2017-Jul-17 19:59N 70°51' E 029°06'0 0.0
2017-Jul-17 19:29N 70°51' E 029°06'0 0.0
2017-Jul-17 18:59N 70°51' E 029°06'0 0.0
2017-Jul-17 18:29N 70°51' E 029°06'0 0.0
2017-Jul-17 17:59N 70°51' E 029°06'0 0.0
2017-Jul-17 17:29N 70°51' E 029°06'0 0.0
2017-Jul-17 16:59N 70°51' E 029°06'0 0.0
2017-Jul-17 16:29N 70°51' E 029°06'0 0.0
2017-Jul-17 15:56N 70°51' E 029°06'0 0.3
2017-Jul-17 15:30N 70°52' E 029°05'0 0.0
2017-Jul-17 15:00N 70°52' E 029°05'0 0.0
2017-Jul-17 14:30N 70°52' E 029°05'0 0.0
2017-Jul-17 14:00N 70°52' E 029°05'2 3.3
2017-Jul-17 13:30N 70°52' E 029°10'4 7.2
2017-Jul-17 12:59N 70°53' E 029°21'2 5.0
2017-Jul-17 12:29N 70°53' E 029°29'0 0.6
2017-Jul-17 12:00N 70°53' E 029°28'0 0.7
2017-Jul-17 11:30N 70°53' E 029°27'0 0.8
2017-Jul-17 11:00N 70°54' E 029°27'1 1.0
2017-Jul-17 10:29N 70°54' E 029°26'1 1.1
2017-Jul-17 10:00N 70°54' E 029°25'1 1.3
2017-Jul-17 09:29N 70°55' E 029°23'1 1.4
2017-Jul-17 09:00N 70°55' E 029°22'1 1.5
2017-Jul-17 08:29N 70°56' E 029°20'1 1.4
2017-Jul-17 08:00N 70°56' E 029°18'1 1.3
2017-Jul-17 07:29N 70°57' E 029°17'0 0.8
2017-Jul-17 07:00N 70°57' E 029°16'3 5.2
2017-Jul-17 06:30N 70°55' E 029°21'2 4.3
2017-Jul-17 06:00N 70°53' E 029°25'3 5.8
2017-Jul-17 05:30N 70°55' E 029°19'2 4.7
2017-Jul-17 05:00N 70°57' E 029°14'3 5.1
2017-Jul-17 04:30N 70°55' E 029°16'4 7.5
2017-Jul-17 04:00N 70°52' E 029°08'1 1.9
2017-Jul-17 03:30N 70°51' E 029°06'0 0.0
2017-Jul-17 03:00N 70°51' E 029°06'0 0.0
2017-Jul-17 02:30N 70°51' E 029°06'0 0.0
2017-Jul-17 02:00N 70°51' E 029°06'0 0.0
2017-Jul-17 01:30N 70°51' E 029°06'0 0.0
2017-Jul-17 01:00N 70°51' E 029°06'0 0.0
2017-Jul-17 00:30N 70°51' E 029°06'0 0.0
2017-Jul-17 00:00N 70°51' E 029°06'0 0.0
2017-Jul-16 23:30N 70°51' E 029°06'0 0.0
2017-Jul-16 23:00N 70°51' E 029°06'0 0.0
2017-Jul-16 22:30N 70°51' E 029°06'0 0.0
2017-Jul-16 21:57N 70°51' E 029°06'0 0.0
2017-Jul-16 21:30N 70°51' E 029°06'0 0.0
2017-Jul-16 21:00N 70°51' E 029°06'0 0.0
2017-Jul-16 20:30N 70°51' E 029°06'0 0.0
2017-Jul-16 20:00N 70°51' E 029°06'0 0.0
2017-Jul-16 19:30N 70°51' E 029°06'0 0.0
2017-Jul-16 19:00N 70°51' E 029°06'0 0.0
2017-Jul-16 18:30N 70°51' E 029°06'0 0.0
2017-Jul-16 18:00N 70°51' E 029°06'0 0.0
2017-Jul-16 17:30N 70°51' E 029°06'0 0.0
2017-Jul-16 17:00N 70°51' E 029°06'0 0.0
2017-Jul-16 16:30N 70°51' E 029°06'0 0.0
2017-Jul-16 16:00N 70°51' E 029°06'0 0.0
2017-Jul-16 15:30N 70°51' E 029°06'0 0.2
2017-Jul-16 15:00N 70°52' E 029°05'0 0.0
2017-Jul-16 14:30N 70°52' E 029°05'1 1.3
2017-Jul-16 14:00N 70°52' E 029°07'3 6.9
2017-Jul-16 13:30N 70°54' E 029°15'2 4.4
2017-Jul-16 13:00N 70°56' E 029°20'0 0.7
2017-Jul-16 12:30N 70°56' E 029°19'0 0.7
2017-Jul-16 11:59N 70°56' E 029°18'0 0.3
2017-Jul-16 11:31N 70°56' E 029°18'0 0.5
2017-Jul-16 11:00N 70°56' E 029°17'0 0.6
2017-Jul-16 10:30N 70°56' E 029°16'0 0.5
2017-Jul-16 10:01N 70°56' E 029°17'2 3.2
2017-Jul-16 09:29N 70°55' E 029°21'0 0.6
2017-Jul-16 08:58N 70°55' E 029°22'0 0.3
2017-Jul-16 08:30N 70°55' E 029°22'0 0.4
2017-Jul-16 07:59N 70°55' E 029°22'0 0.4
2017-Jul-16 07:29N 70°55' E 029°22'0 0.1
2017-Jul-16 06:59N 70°55' E 029°22'2 5.0
2017-Jul-16 06:30N 70°56' E 029°17'2 4.9
2017-Jul-16 06:00N 70°58' E 029°11'3 5.3
2017-Jul-16 05:30N 70°56' E 029°17'1 2.5
2017-Jul-16 05:00N 70°55' E 029°19'1 2.6
2017-Jul-16 04:30N 70°54' E 029°17'4 7.1
2017-Jul-16 04:00N 70°52' E 029°08'1 1.9
2017-Jul-16 03:28N 70°51' E 029°06'0 0.0
2017-Jul-16 02:58N 70°51' E 029°06'0 0.0
2017-Jul-16 02:28N 70°51' E 029°06'0 0.0
2017-Jul-16 01:58N 70°51' E 029°06'0 0.0
2017-Jul-16 01:28N 70°51' E 029°06'0 0.0
2017-Jul-16 00:58N 70°51' E 029°06'0 0.0
2017-Jul-16 00:28N 70°51' E 029°06'0 0.0
2017-Jul-15 23:58N 70°51' E 029°06'0 0.0
2017-Jul-15 23:28N 70°51' E 029°06'0 0.0
2017-Jul-15 22:58N 70°51' E 029°06'0 0.0
2017-Jul-15 22:28N 70°51' E 029°06'0 0.0
2017-Jul-15 21:58N 70°51' E 029°06'0 0.0
2017-Jul-15 21:28N 70°51' E 029°06'0 0.0
2017-Jul-15 20:58N 70°51' E 029°06'0 0.0
2017-Jul-15 20:28N 70°51' E 029°06'0 0.0
2017-Jul-15 19:58N 70°51' E 029°06'0 0.0
2017-Jul-15 19:28N 70°51' E 029°06'0 0.0
2017-Jul-15 18:58N 70°51' E 029°06'0 0.0
2017-Jul-15 18:28N 70°51' E 029°06'0 0.0
2017-Jul-15 17:58N 70°51' E 029°06'0 0.0
2017-Jul-15 17:28N 70°51' E 029°06'0 0.0
2017-Jul-15 16:58N 70°51' E 029°06'0 0.0
2017-Jul-15 16:28N 70°51' E 029°06'0 0.0
2017-Jul-15 15:58N 70°51' E 029°06'0 0.0
2017-Jul-15 15:28N 70°51' E 029°06'0 0.3
2017-Jul-15 15:01N 70°52' E 029°05'1 1.0
2017-Jul-15 14:01N 70°52' E 029°08'4 7.3
2017-Jul-15 13:30N 70°55' E 029°16'2 3.4
2017-Jul-15 12:59N 70°56' E 029°21'0 0.3
2017-Jul-15 12:30N 70°56' E 029°20'0 0.4
2017-Jul-15 12:00N 70°56' E 029°20'0 0.5
2017-Jul-15 11:30N 70°56' E 029°20'0 0.2
2017-Jul-15 10:59N 70°56' E 029°20'0 0.1
2017-Jul-15 10:30N 70°56' E 029°20'0 0.6
2017-Jul-15 10:00N 70°56' E 029°19'0 0.8
2017-Jul-15 09:30N 70°56' E 029°18'0 1.0
2017-Jul-15 09:00N 70°56' E 029°16'0 1.0
2017-Jul-15 08:29N 70°56' E 029°15'1 1.6
2017-Jul-15 07:59N 70°57' E 029°14'1 1.1
2017-Jul-15 07:30N 70°57' E 029°13'0 0.9
2017-Jul-15 07:00N 70°58' E 029°12'0 0.7
2017-Jul-15 06:30N 70°57' E 029°13'1 2.8
2017-Jul-15 06:00N 70°58' E 029°10'2 4.9
2017-Jul-15 05:30N 70°57' E 029°15'2 4.6
2017-Jul-15 05:00N 70°55' E 029°20'1 3.0
2017-Jul-15 04:30N 70°54' E 029°16'4 7.0
2017-Jul-15 04:00N 70°52' E 029°08'1 1.6
2017-Jul-15 03:30N 70°51' E 029°06'0 0.0
2017-Jul-15 03:00N 70°51' E 029°06'0 0.0
2017-Jul-15 02:30N 70°51' E 029°06'0 0.0
2017-Jul-15 02:00N 70°51' E 029°06'0 0.0
2017-Jul-15 01:30N 70°51' E 029°06'0 0.0
2017-Jul-15 01:00N 70°51' E 029°06'0 0.0
2017-Jul-15 00:30N 70°51' E 029°06'0 0.0
2017-Jul-15 00:00N 70°51' E 029°06'0 0.0
2017-Jul-14 23:30N 70°51' E 029°06'0 0.0
2017-Jul-14 23:00N 70°51' E 029°06'0 0.0
2017-Jul-14 22:27N 70°51' E 029°06'0 0.0
2017-Jul-14 22:00N 70°51' E 029°06'0 0.0
2017-Jul-14 21:30N 70°51' E 029°06'0 0.0
2017-Jul-14 21:00N 70°51' E 029°06'0 0.0
2017-Jul-14 20:30N 70°51' E 029°06'0 0.0
2017-Jul-14 20:00N 70°51' E 029°06'0 0.0
2017-Jul-14 19:30N 70°51' E 029°06'0 0.7
2017-Jul-14 19:00N 70°51' E 029°07'0 0.7
2017-Jul-14 18:29N 70°51' E 029°06'0 0.0
2017-Jul-14 17:59N 70°51' E 029°06'0 0.0
2017-Jul-14 17:29N 70°51' E 029°06'0 0.0
2017-Jul-14 16:59N 70°51' E 029°06'0 0.0
2017-Jul-14 16:29N 70°51' E 029°06'0 0.0
2017-Jul-14 16:00N 70°51' E 029°06'0 0.2
2017-Jul-14 15:30N 70°52' E 029°05'0 0.0
2017-Jul-14 15:00N 70°52' E 029°05'2 3.5
2017-Jul-14 14:30N 70°53' E 029°10'4 7.1
2017-Jul-14 14:00N 70°55' E 029°19'0 0.1
2017-Jul-14 11:28N 70°55' E 029°19'0 0.4
2017-Jul-14 10:59N 70°55' E 029°18'0 0.6
2017-Jul-14 10:30N 70°55' E 029°17'0 0.5
2017-Jul-14 10:00N 70°55' E 029°17'0 0.8
2017-Jul-14 09:29N 70°56' E 029°16'0 0.9
2017-Jul-14 09:00N 70°56' E 029°15'1 1.1
2017-Jul-14 08:30N 70°56' E 029°14'0 0.6
2017-Jul-14 08:00N 70°57' E 029°14'2 4.9
2017-Jul-14 07:30N 70°55' E 029°20'2 3.4
2017-Jul-14 06:59N 70°54' E 029°23'3 5.3
2017-Jul-14 06:30N 70°56' E 029°18'3 5.2
2017-Jul-14 06:00N 70°58' E 029°12'1 1.4
2017-Jul-14 05:29N 70°57' E 029°14'3 5.7
2017-Jul-14 04:59N 70°55' E 029°20'2 4.1
2017-Jul-14 04:30N 70°53' E 029°17'4 7.4
2017-Jul-14 04:00N 70°52' E 029°07'0 0.8
2017-Jul-14 03:28N 70°51' E 029°06'0 0.0
2017-Jul-14 02:58N 70°51' E 029°06'0 0.0
2017-Jul-14 02:28N 70°51' E 029°06'0 0.0
2017-Jul-14 01:58N 70°51' E 029°06'0 0.0
2017-Jul-14 01:28N 70°51' E 029°06'0 0.0
2017-Jul-14 00:58N 70°51' E 029°06'0 0.0
2017-Jul-14 00:28N 70°51' E 029°06'0 0.0
2017-Jul-13 23:58N 70°51' E 029°06'0 0.0
2017-Jul-13 23:28N 70°51' E 029°06'0 0.0
2017-Jul-13 22:58N 70°51' E 029°06'0 0.0
2017-Jul-13 22:28N 70°51' E 029°06'0 0.0
2017-Jul-13 21:58N 70°51' E 029°06'0 0.0
2017-Jul-13 21:28N 70°51' E 029°06'0 0.0
2017-Jul-13 20:58N 70°51' E 029°06'0 0.0
2017-Jul-13 20:28N 70°51' E 029°06'0 0.0
2017-Jul-13 19:58N 70°51' E 029°06'0 0.0
2017-Jul-13 19:28N 70°51' E 029°06'0 0.0
2017-Jul-13 18:58N 70°51' E 029°06'0 0.0
2017-Jul-13 18:28N 70°51' E 029°06'0 0.0
2017-Jul-13 17:58N 70°51' E 029°06'0 0.0
2017-Jul-13 17:28N 70°51' E 029°06'0 0.0
2017-Jul-13 16:58N 70°51' E 029°06'0 0.0
2017-Jul-13 16:28N 70°51' E 029°06'0 0.0
2017-Jul-13 15:55N 70°51' E 029°06'0 0.0
2017-Jul-13 15:28N 70°51' E 029°06'0 0.7
2017-Jul-13 14:59N 70°51' E 029°07'0 1.0
2017-Jul-13 14:30N 70°52' E 029°05'0 0.0
2017-Jul-13 13:57N 70°52' E 029°05'0 0.0
2017-Jul-13 13:30N 70°52' E 029°05'0 0.3
2017-Jul-13 12:59N 70°52' E 029°06'3 6.3
2017-Jul-13 12:29N 70°54' E 029°13'2 4.7
2017-Jul-13 11:59N 70°55' E 029°18'0 0.6
2017-Jul-13 11:30N 70°55' E 029°19'0 0.7
2017-Jul-13 11:00N 70°55' E 029°19'1 1.4
2017-Jul-13 10:29N 70°55' E 029°20'1 1.4
2017-Jul-13 10:00N 70°54' E 029°22'1 1.4
2017-Jul-13 09:30N 70°54' E 029°24'1 1.2
2017-Jul-13 09:00N 70°54' E 029°26'1 1.0
2017-Jul-13 08:30N 70°53' E 029°27'0 0.9
2017-Jul-13 08:00N 70°53' E 029°28'0 0.5
2017-Jul-13 07:30N 70°53' E 029°28'0 0.2
2017-Jul-13 06:59N 70°53' E 029°28'1 2.7
2017-Jul-13 06:30N 70°54' E 029°25'3 6.5
2017-Jul-13 06:00N 70°56' E 029°18'0 0.9
2017-Jul-13 05:29N 70°56' E 029°19'3 5.5
2017-Jul-13 05:00N 70°54' E 029°24'2 3.5
2017-Jul-13 04:30N 70°54' E 029°19'4 7.6
2017-Jul-13 04:00N 70°52' E 029°09'1 2.5
2017-Jul-13 03:29N 70°51' E 029°06'0 0.0
2017-Jul-13 02:59N 70°51' E 029°06'0 0.0
2017-Jul-13 02:29N 70°51' E 029°06'0 0.0
2017-Jul-13 01:59N 70°51' E 029°06'0 0.0
2017-Jul-13 01:29N 70°51' E 029°06'0 0.0
2017-Jul-13 00:59N 70°51' E 029°06'0 0.0
2017-Jul-13 00:29N 70°51' E 029°06'0 0.0
2017-Jul-12 23:56N 70°51' E 029°06'0 0.0
2017-Jul-12 23:29N 70°51' E 029°06'0 0.0
2017-Jul-12 22:59N 70°51' E 029°06'0 0.0
2017-Jul-12 22:29N 70°51' E 029°06'0 0.0
2017-Jul-12 21:56N 70°51' E 029°06'0 0.0
2017-Jul-12 21:29N 70°51' E 029°06'0 0.0
2017-Jul-12 20:59N 70°51' E 029°06'0 0.0
2017-Jul-12 20:29N 70°51' E 029°06'0 0.0
2017-Jul-12 19:59N 70°51' E 029°06'0 0.0
2017-Jul-12 19:29N 70°51' E 029°06'0 0.0
2017-Jul-12 18:59N 70°51' E 029°06'0 0.0
2017-Jul-12 18:29N 70°51' E 029°06'0 0.0
2017-Jul-12 17:59N 70°51' E 029°06'0 0.0
2017-Jul-12 17:29N 70°51' E 029°06'0 0.0
2017-Jul-12 16:59N 70°51' E 029°06'0 0.0
2017-Jul-12 16:29N 70°51' E 029°06'0 0.0
2017-Jul-12 15:59N 70°51' E 029°06'0 0.2
2017-Jul-12 15:29N 70°52' E 029°05'0 0.0
2017-Jul-12 14:59N 70°52' E 029°05'3 2.6
2017-Jul-12 13:59N 70°54' E 029°10'3 6.2
2017-Jul-12 13:30N 70°56' E 029°15'0 0.7
2017-Jul-12 13:00N 70°56' E 029°16'0 0.1
2017-Jul-12 12:30N 70°56' E 029°15'0 0.4
2017-Jul-12 11:59N 70°56' E 029°15'0 0.4
2017-Jul-12 11:30N 70°56' E 029°14'0 0.6
2017-Jul-12 10:59N 70°56' E 029°14'0 0.5
2017-Jul-12 10:30N 70°56' E 029°13'0 0.4
2017-Jul-12 10:00N 70°56' E 029°13'0 0.6
2017-Jul-12 09:29N 70°56' E 029°13'0 0.7
2017-Jul-12 09:00N 70°57' E 029°13'0 0.3
2017-Jul-12 08:30N 70°57' E 029°13'1 1.0
2017-Jul-12 08:00N 70°57' E 029°13'0 1.0
2017-Jul-12 07:29N 70°57' E 029°15'0 0.6
2017-Jul-12 07:00N 70°57' E 029°14'  

Dump ship's entire track history